Kezdőlap
METAR-TAF:

METAR-TAF

Repülőterek :

Zeltwegi katonai repülőtér

Zeltweg, Ausztria

földrajzi szélesség: 47-12N, földrajzi hosszúság: 014-45E, magasság: 677 m

Jelenlegi meteorológiai megfigyelések

A jelentés 30 perccel ezelõtt készült, 19:50 UTC
Különbözõ irányokból fújó szél 2 kt
Hőmérséklet 6°C
Páratartalom 93%
Légköri nyomás 1026 hPa

METAR: LOXZ 201950Z VRB02KT 15KM FEW060SC SCT240CI 06/05 Q1026

Idő: 22:20 (20:20 UTC)


TAF: hiányzik

Meteorológiai megfigyelések és előrejelzések több, mint 4000 repülőtéren (METAR és TAF jelentéseket).

A térképen piros és sárga pontok jelzik az elérhető meteorológiai állomásokat.

Mozgassa az egeret a pont fölött, hogy megjelenjen az állomás neve.

Azután kattintson az időjárási megfigyelések és előrejelzések megtekintéséhez.

A térkép megváltoztatása: kattintson a fekete keresztel jelölt zöld gombra ráközelítéshez, a vonallal jelölt zöld gombra távolításhoz, vagy a zöld nyilakra a szomszédos térképek eléréséhez.


METAR-TAF: